Terminal Aerodrome Forecast
Issued by NWS Twin Cities, MN

Home | Current Version | Previous Version | Graphics & Text | Print | Product List | Glossary On
Versions: 1 2 3 4 5 6 7 8 9 10 11 12 13 14 15 16 17 18
000
FTUS43 KMPX 210500
TAFEAU
TAF
KEAU 210523Z 2106/2206 28009KT P6SM SCT020 OVC040
      TEMPO 2106/2108 -DZ BKN020
     FM210800 28008KT P6SM -DZ SCT007 OVC018
     FM211000 30009KT P6SM -RA BKN007 OVC014
     FM211600 34011KT P6SM BKN020 OVC040
     FM211800 35010KT P6SM SCT025 BKN040
     FM212300 34005KT P6SM SCT045=

USA.gov is the U.S. government's official web portal to all federal, state and local government web resources and services.